Time;durP1;ratioP1;P1;durP2;ratioP2;P2;SDS_P1;SDS_P2;PMS_P1;PMS_P2;Temp;Humidity;BMP_temperature;BMP_pressure;BME280_temperature;BME280_humidity;BME280_pressure;Samples;Min_cycle;Max_cycle;Signal;HPM_P1;HPM_P2
2023/08/01 00:01:28;;;;;;;5.90;2.38;;;;;;;;;;5094445;28;20089;-74
2023/08/01 00:03:57;;;;;;;4.18;1.77;;;;;;;;;;5077429;28;20021;-74
2023/08/01 00:06:25;;;;;;;3.00;1.20;;;;;;;;;;5078581;28;20043;-75
2023/08/01 00:08:54;;;;;;;4.35;1.40;;;;;;;;;;5093234;28;20024;-74
2023/08/01 00:11:22;;;;;;;5.38;1.80;;;;;;;;;;5098397;28;20036;-74
2023/08/01 00:13:48;;;;;;;33.50;5.30;;;;;;;;;;5082366;28;20020;-74
2023/08/01 00:16:14;;;;;;;20.10;4.25;;;;;;;;;;5094810;28;20070;-77
2023/08/01 00:18:40;;;;;;;16.63;2.65;;;;;;;;;;5079266;28;20039;-74
2023/08/01 00:21:09;;;;;;;9.52;3.13;;;;;;;;;;5075814;28;20063;-77
2023/08/01 00:23:35;;;;;;;10.65;3.13;;;;;;;;;;5075163;28;20074;-75
2023/08/01 00:26:02;;;;;;;12.07;4.18;;;;;;;;;;5070845;28;20056;-77
2023/08/01 00:28:28;;;;;;;26.15;4.28;;;;;;;;;;5092355;28;20044;-78
2023/08/01 00:31:08;;;;;;;6.53;1.63;;;;;;;;;;5078343;28;20033;-79
2023/08/01 00:33:34;;;;;;;13.85;4.60;;;;;;;;;;5090046;28;20067;-78
2023/08/01 00:36:03;;;;;;;10.88;5.15;;;;;;;;;;5076342;28;20044;-76
2023/08/01 00:38:29;;;;;;;14.00;4.53;;;;;;;;;;5069673;28;20032;-76
2023/08/01 00:40:55;;;;;;;4.70;2.25;;;;;;;;;;5070213;28;20033;-76
2023/08/01 00:43:21;;;;;;;4.13;1.88;;;;;;;;;;5091637;28;20032;-76
2023/08/01 00:45:50;;;;;;;20.75;2.67;;;;;;;;;;5094629;28;20021;-75
2023/08/01 00:48:16;;;;;;;10.80;4.28;;;;;;;;;;5087717;28;20088;-80
2023/08/01 00:50:42;;;;;;;9.80;4.22;;;;;;;;;;5068382;28;20036;-82
2023/08/01 00:53:08;;;;;;;5.75;1.90;;;;;;;;;;5074840;28;20039;-74
2023/08/01 00:55:34;;;;;;;6.03;2.25;;;;;;;;;;5094320;28;20096;-75
2023/08/01 00:58:00;;;;;;;4.10;1.80;;;;;;;;;;5085987;28;20039;-75
2023/08/01 01:00:26;;;;;;;6.32;1.88;;;;;;;;;;5080901;28;20257;-75
2023/08/01 01:02:55;;;;;;;3.47;0.98;;;;;;;;;;5093702;28;20062;-77
2023/08/01 01:05:22;;;;;;;5.05;1.63;;;;;;;;;;5093508;28;20028;-74
2023/08/01 01:07:49;;;;;;;2.35;0.95;;;;;;;;;;5097869;28;20012;-75
2023/08/01 01:10:15;;;;;;;3.47;1.30;;;;;;;;;;5076926;28;20046;-74
2023/08/01 01:12:44;;;;;;;4.53;1.58;;;;;;;;;;5077651;28;20052;-74
2023/08/01 01:15:10;;;;;;;2.85;0.73;;;;;;;;;;5097322;28;20041;-74
2023/08/01 01:17:36;;;;;;;3.65;1.15;;;;;;;;;;5076905;28;20024;-74
2023/08/01 01:20:04;;;;;;;7.55;1.45;;;;;;;;;;5077377;28;20016;-74
2023/08/01 01:22:30;;;;;;;3.30;1.60;;;;;;;;;;5094013;28;20021;-74
2023/08/01 01:24:57;;;;;;;19.65;2.22;;;;;;;;;;5097301;28;20184;-74
2023/08/01 01:27:24;;;;;;;4.07;1.08;;;;;;;;;;5098508;28;20029;-74
2023/08/01 01:29:52;;;;;;;6.53;0.85;;;17.70;99.90;;;;;;5079180;28;20009;-73
2023/08/01 01:32:18;;;;;;;26.00;1.02;;;17.20;99.90;;;;;;5080423;28;20056;-73
2023/08/01 01:34:46;;;;;;;1.55;0.30;;;;;;;;;;5095610;28;20036;-74
2023/08/01 01:37:12;;;;;;;3.67;0.38;;;;;;;;;;5075713;28;20031;-74
2023/08/01 01:39:37;;;;;;;23.88;0.85;;;;;;;;;;5096970;28;20028;-74
2023/08/01 01:42:04;;;;;;;11.43;0.70;;;;;;;;;;5079371;28;20032;-74
2023/08/01 01:44:32;;;;;;;5.53;0.47;;;;;;;;;;5095878;28;20021;-75
2023/08/01 01:46:58;;;;;;;31.20;2.05;;;;;;;;;;5095853;28;20031;-74
2023/08/01 01:49:26;;;;;;;17.13;1.23;;;;;;;;;;5078213;28;20036;-75
2023/08/01 01:51:52;;;;;;;40.22;2.55;;;;;;;;;;5097038;28;20025;-75
2023/08/01 01:54:22;;;;;;;1.35;0.40;;;;;;;;;;5078279;28;20046;-75
2023/08/01 01:56:48;;;;;;;2.10;0.43;;;;;;;;;;5098131;28;20025;-75
2023/08/01 01:59:14;;;;;;;3.67;0.50;;;;;;;;;;5076573;28;20028;-76
2023/08/01 02:01:40;;;;;;;3.45;0.63;;;;;;;;;;5073245;28;20028;-75
2023/08/01 02:04:06;;;;;;;2.88;0.55;;;;;;;;;;5091478;28;20032;-75
2023/08/01 02:06:32;;;;;;;3.35;0.70;;;;;;;;;;5079521;28;20012;-75
2023/08/01 02:08:58;;;;;;;11.82;1.30;;;;;;;;;;5077855;28;20101;-75
2023/08/01 02:11:27;;;;;;;1.67;0.40;;;;;;;;;;5096884;28;20036;-74
2023/08/01 02:13:54;;;;;;;4.97;0.60;;;;;;;;;;5077537;28;20051;-75
2023/08/01 02:16:19;;;;;;;5.43;0.80;;;;;;;;;;5091486;28;20032;-75
2023/08/01 02:18:45;;;;;;;2.45;0.85;;;;;;;;;;5079063;28;20092;-74
2023/08/01 02:21:11;;;;;;;5.78;0.75;;;;;;;;;;5096085;28;20052;-75
2023/08/01 02:23:37;;;;;;;3.55;1.02;;;;;;;;;;5078060;28;20050;-74
2023/08/01 02:26:04;;;;;;;10.32;1.60;;;;;;;;;;5078572;28;20012;-75
2023/08/01 02:28:30;;;;;;;3.53;0.90;;;;;;;;;;5090893;28;20020;-74
2023/08/01 02:30:56;;;;;;;3.15;1.20;;;;;;;;;;5073603;28;20025;-74
2023/08/01 02:33:22;;;;;;;2.15;1.00;;;;;;;;;;5077251;28;20031;-73
2023/08/01 02:35:48;;;;;;;3.92;1.10;;;;;;;;;;5093956;28;20064;-73
2023/08/01 02:38:16;;;;;;;4.05;1.50;;;;;;;;;;5093839;28;20035;-74
2023/08/01 02:40:42;;;;;;;4.32;1.25;;;;;;;;;;5094832;28;20025;-74
2023/08/01 02:43:08;;;;;;;2.92;1.30;;;;;;;;;;5095561;28;20021;-73
2023/08/01 02:45:34;;;;;;;4.93;1.60;;;;;;;;;;5095227;28;20035;-74
2023/08/01 02:48:00;;;;;;;3.67;1.33;;;;;;;;;;5091700;28;20020;-74
2023/08/01 02:50:28;;;;;;;6.15;1.40;;;;;;;;;;5074237;28;20092;-74
2023/08/01 02:52:57;;;;;;;3.80;1.40;;;;;;;;;;5077240;28;20052;-74
2023/08/01 02:55:23;;;;;;;4.10;1.40;;;;;;;;;;5094932;28;20021;-74
2023/08/01 02:57:49;;;;;;;2.35;1.33;;;;;;;;;;5078762;28;20040;-74
2023/08/01 03:00:17;;;;;;;3.28;1.95;;;;;;;;;;5090243;28;20470;-74
2023/08/01 03:02:43;;;;;;;2.50;1.73;;;;;;;;;;5077079;28;20013;-74
2023/08/01 03:05:09;;;;;;;4.65;1.90;;;;;;;;;;5094604;28;20028;-73
2023/08/01 03:07:36;;;;;;;7.07;1.95;;;;;;;;;;5091356;28;20042;-74
2023/08/01 03:10:04;;;;;;;3.63;2.45;;;;;;;;;;5094638;28;20016;-74
2023/08/01 03:12:30;;;;;;;4.57;2.15;;;;;;;;;;5094445;28;20056;-74
2023/08/01 03:14:56;;;;;;;5.93;2.60;;;;;;;;;;5095892;28;20055;-74
2023/08/01 03:17:22;;;;;;;5.50;2.28;;;;;;;;;;5090229;28;20016;-74
2023/08/01 03:19:49;;;;;;;6.95;3.05;;;;;;;;;;5077625;28;20031;-74
2023/08/01 03:22:15;;;;;;;6.55;3.15;;;;;;;;;;5078886;28;20213;-73
2023/08/01 03:24:43;;;;;;;8.85;3.88;;;;;;;;;;5073527;28;20032;-74
2023/08/01 03:27:09;;;;;;;5.85;3.20;;;;;;;;;;5074684;28;20027;-74
2023/08/01 03:29:35;;;;;;;6.50;3.67;;;;;;;;;;5093687;28;20024;-75
2023/08/01 03:32:01;;;;;;;9.68;3.70;;;;;;;;;;5078512;28;20044;-74
2023/08/01 03:34:27;;;;;;;7.80;3.83;;;;;;;;;;5094606;28;20075;-73
2023/08/01 03:36:55;;;;;;;10.05;3.95;;;;;;;;;;5095136;28;20020;-74
2023/08/01 03:39:21;;;;;;;8.52;4.35;;;;;;;;;;5075747;28;20037;-74
2023/08/01 03:41:47;;;;;;;10.27;4.55;;;;;;;;;;5094512;28;20039;-73
2023/08/01 03:44:14;;;;;;;14.82;5.78;;;;;;;;;;5098383;28;20480;-74
2023/08/01 03:46:40;;;;;;;10.95;6.00;;;;;;;;;;5093203;28;20024;-74
2023/08/01 03:49:06;;;;;;;11.00;5.72;;;;;;;;;;5080111;28;20024;-73
2023/08/01 03:51:32;;;;;;;14.73;6.50;;;;;;;;;;5076562;28;20040;-74
2023/08/01 03:54:00;;;;;;;14.82;7.95;;;;;;;;;;5093659;28;20051;-75
2023/08/01 03:56:31;;;;;;;13.90;7.28;;;;;;;;;;5098716;28;20053;-74
2023/08/01 03:58:57;;;;;;;20.17;8.85;;;;;;;;;;5080448;28;20034;-74
2023/08/01 04:01:23;;;;;;;15.95;7.93;;;;;;;;;;5077721;28;20021;-73
2023/08/01 04:03:51;;;;;;;13.90;7.78;;;;;;;;;;5096760;28;20339;-75
2023/08/01 04:06:18;;;;;;;17.17;8.38;;;;;;;;;;5097656;28;20032;-74
2023/08/01 04:08:44;;;;;;;15.48;8.63;;;;;;;;;;5097752;28;20021;-74
2023/08/01 04:11:11;;;;;;;15.45;8.00;;;;;;;;;;5081338;28;21963;-73
2023/08/01 04:13:37;;;;;;;16.15;8.52;;;;;;;;;;5081448;28;20040;-73
2023/08/01 04:16:03;;;;;;;14.90;8.88;;;;;;;;;;5093184;28;20028;-75
2023/08/01 04:18:29;;;;;;;16.48;9.30;;;;;;;;;;5098340;28;20040;-73
2023/08/01 04:20:59;;;;;;;15.00;8.93;;;;;;;;;;5099258;28;20108;-74
2023/08/01 04:23:25;;;;;;;14.40;8.73;;;;;;;;;;5080962;28;20009;-74
2023/08/01 04:25:53;;;;;;;24.63;9.90;;;;;;;;;;5094131;28;20025;-73
2023/08/01 04:28:22;;;;;;;20.10;9.95;;;;;;;;;;5097914;28;20012;-74
2023/08/01 04:30:49;;;;;;;18.27;9.05;;;;;;;;;;5093449;28;20025;-75
2023/08/01 04:33:15;;;;;;;16.85;9.38;;;;;;;;;;5080869;28;20087;-74
2023/08/01 04:35:41;;;;;;;15.70;8.95;;;;;;;;;;5097272;28;20013;-73
2023/08/01 04:38:08;;;;;;;17.13;9.30;;;;;;;;;;5081680;28;20127;-74
2023/08/01 04:40:34;;;;;;;17.90;9.88;;;;;;;;;;5097367;28;20033;-74
2023/08/01 04:43:01;;;;;;;18.42;8.93;;;;;;;;;;5076594;28;20043;-75
2023/08/01 04:45:27;;;;;;;17.00;8.55;;;;;;;;;;5099149;28;20020;-74
2023/08/01 04:47:56;;;;;;;15.73;9.13;;;;;;;;;;5076396;28;20040;-75
2023/08/01 04:50:22;;;;;;;16.23;7.43;;;;;;;;;;5079541;28;20141;-74
2023/08/01 04:52:48;;;;;;;22.25;8.63;;;;;;;;;;5097490;28;20043;-74
2023/08/01 04:55:14;;;;;;;18.52;9.00;;;;;;;;;;5096035;28;20179;-74
2023/08/01 04:57:40;;;;;;;12.98;8.18;;;;;;;;;;5097281;28;20029;-75
2023/08/01 05:00:08;;;;;;;15.75;7.78;;;;;;;;;;5079381;28;20012;-74
2023/08/01 05:02:34;;;;;;;19.48;8.43;;;;;;;;;;5098134;28;20029;-73
2023/08/01 05:05:03;;;;;;;14.65;7.70;;;;;;;;;;5093330;28;20032;-74
2023/08/01 05:07:29;;;;;;;16.80;8.43;;;;;;;;;;5099146;28;20042;-74
2023/08/01 05:09:55;;;;;;;12.65;7.82;;;;;;;;;;5080070;28;20032;-74
2023/08/01 05:12:21;;;;;;;23.70;8.95;;;;;;;;;;5079780;28;20044;-74
2023/08/01 05:14:48;;;;;;;18.33;7.72;;;;;;;;;;5092393;28;20096;-74
2023/08/01 05:17:14;;;;;;;16.55;6.97;;;;;;;;;;5079026;28;20939;-74
2023/08/01 05:19:42;;;;;;;14.02;6.93;;;;;;;;;;5097615;28;20038;-74
2023/08/01 05:22:08;;;;;;;15.95;6.60;;;;;;;;;;5097407;28;20021;-74
2023/08/01 05:24:34;;;;;;;12.02;6.32;;;;;;;;;;5078628;28;20036;-74
2023/08/01 05:27:00;;;;;;;13.85;6.88;;;;;;;;;;5096523;28;20036;-74
2023/08/01 05:29:28;;;;;;;12.40;6.30;;;;;;;;;;5092860;28;20033;-75
2023/08/01 05:31:54;;;;;;;12.18;6.25;;;;;;;;;;5078919;28;20039;-74
2023/08/01 05:34:20;;;;;;;11.80;6.30;;;;;;;;;;5078916;28;20012;-74
2023/08/01 05:36:46;;;;;;;13.02;5.85;;;;;;;;;;5092399;28;20013;-74
2023/08/01 05:39:14;;;;;;;11.48;6.00;;;;;;;;;;5092836;28;20012;-74
2023/08/01 05:41:43;;;;;;;10.93;5.50;;;;;;;;;;5096484;28;20024;-74
2023/08/01 05:44:11;;;;;;;13.68;6.30;;;;;;;;;;5076750;28;20050;-74
2023/08/01 05:46:39;;;;;;;11.10;6.05;;;;;;;;;;5097363;28;20029;-74
2023/08/01 05:49:05;;;;;;;8.48;5.50;;;;;;;;;;5096676;28;20032;-74
2023/08/01 05:51:31;;;;;;;10.90;5.05;;;;;;;;;;5096978;28;20040;-75
2023/08/01 05:53:59;;;;;;;8.98;5.15;;;;;;;;;;5096256;28;20051;-75
2023/08/01 05:56:25;;;;;;;15.02;4.95;;;;;;;;;;5080002;28;20125;-74
2023/08/01 05:58:51;;;;;;;8.80;4.43;;;;;;;;;;5092711;28;20008;-75
2023/08/01 06:01:20;;;;;;;9.98;5.55;;;;;;;;;;5092114;28;20028;-74
2023/08/01 06:03:46;;;;;;;10.85;5.60;;;;;;;;;;5076701;28;20019;-74
2023/08/01 06:06:12;;;;;;;16.25;5.95;;;;;;;;;;5075098;28;20008;-75
2023/08/01 06:08:40;;;;;;;11.98;5.05;;;;;;;;;;5075506;28;20042;-75
2023/08/01 06:11:06;;;;;;;9.07;4.60;;;;;;;;;;5095682;28;20013;-74
2023/08/01 06:13:40;;;;;;;12.85;4.68;;;;;;;;;;5095907;28;20040;-73
2023/08/01 06:16:06;;;;;;;6.57;4.18;;;;;;;;;;5092081;28;20020;-74
2023/08/01 06:18:35;;;;;;;9.13;4.68;;;;;;;;;;5075362;28;20075;-75
2023/08/01 06:21:07;;;;;;;15.05;4.70;;;;;;;;;;5097776;28;20032;-75
2023/08/01 06:23:35;;;;;;;12.82;4.97;;;;;;;;;;5096310;28;20028;-75
2023/08/01 06:26:16;;;;;;;9.48;4.43;;;;;;;;;;5091186;28;20031;-74
2023/08/01 06:28:45;;;;;;;9.98;4.63;;;;;;;;;;5079340;28;20025;-74
2023/08/01 06:31:11;;;;;;;9.32;4.63;;;;;;;;;;5091635;28;20020;-74
2023/08/01 06:33:39;;;;;;;11.68;4.75;;;;;;;;;;5077322;28;20035;-75
2023/08/01 06:36:06;;;;;;;13.95;5.07;;;;;;;;;;5095398;28;20029;-74
2023/08/01 06:38:32;;;;;;;11.05;4.35;;;;;;;;;;5095281;28;20027;-74
2023/08/01 06:40:58;;;;;;;8.90;3.97;;;;;;;;;;5094709;28;20012;-75
2023/08/01 06:43:24;;;;;;;8.38;3.80;;;;;;;;;;5076989;28;20092;-74
2023/08/01 06:45:50;;;;;;;9.25;4.13;;;;;;;;;;5076978;28;20034;-74
2023/08/01 06:48:16;;;;;;;8.57;4.15;;;;;;;;;;5095582;28;20076;-75
2023/08/01 06:50:42;;;;;;;9.38;4.35;;;;;;;;;;5094882;28;20127;-74
2023/08/01 06:53:08;;;;;;;20.35;4.72;;;;;;;;;;5076578;28;20210;-75
2023/08/01 06:55:34;;;;;;;8.95;4.72;;;;;;;;;;5094716;28;20036;-74
2023/08/01 06:58:00;;;;;;;10.73;4.72;;;;;;;;;;5078543;28;20028;-74
2023/08/01 07:00:26;;;;;;;8.00;3.75;;;;;;;;;;5074236;28;20281;-75
2023/08/01 07:02:52;;;;;;;11.93;3.78;;;;;;;;;;5090361;28;20024;-75
2023/08/01 07:05:18;;;;;;;21.90;4.88;;;;;;;;;;5091015;28;20020;-74
2023/08/01 07:07:44;;;;;;;7.57;3.95;;;;;;;;;;5096385;28;20101;-75
2023/08/01 07:10:11;;;;;;;14.48;5.07;;;;;;;;;;5077401;28;20040;-75
2023/08/01 07:12:37;;;;;;;10.07;4.95;;;;;;;;;;5077315;28;21157;-74
2023/08/01 07:15:03;;;;;;;11.02;4.20;;;;;;;;;;5077725;28;20027;-74
2023/08/01 07:17:29;;;;;;;10.23;4.50;;;;;;;;;;5077344;28;20021;-73
2023/08/01 07:19:55;;;;;;;11.27;4.43;;;;;;;;;;5099120;28;20021;-74
2023/08/01 07:22:21;;;;;;;8.90;3.97;;;;;;;;;;5083021;28;20481;-74
2023/08/01 07:24:47;;;;;;;8.52;4.95;;;;;;;;;;5098732;28;20058;-73
2023/08/01 07:27:13;;;;;;;13.00;4.68;;;;;;;;;;5098342;28;20077;-74
2023/08/01 07:29:41;;;;;;;11.23;4.57;;;;;;;;;;5082097;28;20025;-75
2023/08/01 07:32:07;;;;;;;11.27;5.00;;;;;;;;;;5099951;28;20025;-74
2023/08/01 07:34:33;;;;;;;9.68;4.75;;;;;;;;;;5099826;28;20042;-74
2023/08/01 07:36:59;;;;;;;9.57;4.18;;;;;;;;;;5098417;28;20092;-74
2023/08/01 07:39:25;;;;;;;8.35;4.35;;;;;;;;;;5077731;28;20032;-73
2023/08/01 07:41:51;;;;;;;12.27;5.25;;;;;;;;;;5080947;28;20020;-75
2023/08/01 07:44:17;;;;;;;10.25;4.35;;;;;;;;;;5079651;28;21048;-74
2023/08/01 07:46:43;;;;;;;9.52;5.25;;;;;;;;;;5080822;28;20037;-75
2023/08/01 07:49:09;;;;;;;6.80;3.88;;;;;;;;;;5099182;28;20028;-75
2023/08/01 07:51:36;;;;;;;22.13;4.25;;;;;;;;;;5093765;28;20032;-76
2023/08/01 07:54:02;;;;;;;9.13;4.03;;;;;;;;;;5100488;28;20016;-75
2023/08/01 07:56:28;;;;;;;5.88;3.50;;;;;;;;;;5083047;28;20017;-76
2023/08/01 07:58:54;;;;;;;8.13;4.05;;;;;;;;;;5091638;28;20025;-80
2023/08/01 08:01:20;;;;;;;8.93;4.25;;;;;;;;;;5089261;28;20028;-78
2023/08/01 08:03:46;;;;;;;9.10;4.28;;;;;;;;;;5070990;28;20617;-74
2023/08/01 08:06:14;;;;;;;8.75;3.40;;;;;;;;;;5084706;28;20021;-74
2023/08/01 08:08:42;;;;;;;11.45;3.70;;;;;;;;;;5081084;28;20039;-74
2023/08/01 08:11:08;;;;;;;9.60;4.03;;;;;;;;;;5098518;28;20029;-74
2023/08/01 08:13:34;;;;;;;9.07;3.83;;;;;;;;;;5097161;28;20092;-74
2023/08/01 08:16:00;;;;;;;8.90;3.47;;;;;;;;;;5095506;28;20032;-75
2023/08/01 08:18:26;;;;;;;11.40;4.70;;;;;;;;;;5091192;28;20036;-75
2023/08/01 08:20:52;;;;;;;16.35;4.72;;;;;;;;;;5095164;28;20040;-74
2023/08/01 08:23:21;;;;;;;8.18;3.80;;;;;;;;;;5097028;28;20025;-75
2023/08/01 08:25:50;;;;;;;11.65;4.97;;;;;;;;;;5098944;28;20039;-74
2023/08/01 08:28:17;;;;;;;5.85;3.78;;;;;;;;;;5078850;28;20052;-74
2023/08/01 08:30:45;;;;;;;7.30;4.43;;;;;;;;;;5079507;28;20017;-74
2023/08/01 08:33:20;;;;;;;14.30;4.18;;;;;;;;;;5078678;28;20029;-75
2023/08/01 08:35:46;;;;;;;8.15;3.88;;;;;;;;;;5099032;28;20020;-75
2023/08/01 08:38:15;;;;;;;11.52;3.95;;;;;;;;;;5097517;28;20037;-73
2023/08/01 08:40:44;;;;;;;10.77;4.45;;;;;;;;;;5097210;28;20055;-73
2023/08/01 08:43:10;;;;;;;10.07;4.32;;;;;;;;;;5148343;22;20048;-74
2023/08/01 08:45:40;;;;;;;8.90;3.92;;;;;;;;;;5092017;28;20013;-74
2023/08/01 08:48:10;;;;;;;11.25;4.22;;;;;;;;;;5070466;28;20032;-75
2023/08/01 08:50:36;;;;;;;6.35;3.20;;;;;;;;;;5075310;28;20024;-74
2023/08/01 08:53:02;;;;;;;14.75;3.58;;;;;;;;;;5088848;28;20052;-74
2023/08/01 08:55:31;;;;;;;7.18;3.25;;;;;;;;;;5069730;28;20047;-74
2023/08/01 08:57:57;;;;;;;10.48;3.70;;;;;;;;;;5075438;28;20028;-74
2023/08/01 09:00:23;;;;;;;11.52;3.75;;;;;;;;;;5088902;28;20033;-74
2023/08/01 09:02:49;;;;;;;7.78;3.67;;;;;;;;;;5086251;28;20023;-75
2023/08/01 09:05:16;;;;;;;12.43;3.25;;;;;;;;;;5074974;28;20063;-75
2023/08/01 09:07:43;;;;;;;10.25;3.85;;;;;;;;;;5063826;28;20071;-76
2023/08/01 09:10:09;;;;;;;10.07;3.50;;;;;;;;;;5057730;28;20033;-72
2023/08/01 09:12:35;;;;;;;7.55;3.50;;;;;;;;;;5072662;28;20375;-75
2023/08/01 09:15:01;;;;;;;4.43;2.42;;;;;;;;;;5083962;28;20052;-76
2023/08/01 09:17:27;;;;;;;7.20;3.38;;;;;;;;;;5087117;28;20044;-78
2023/08/01 09:20:05;;;;;;;7.75;2.97;;;;;;;;;;5071135;28;20027;-74
2023/08/01 09:22:41;;;;;;;7.30;3.00;;;;;;;;;;5083239;28;20483;-77
2023/08/01 09:25:09;;;;;;;7.38;3.80;;;;;;;;;;5065730;28;20028;-78
2023/08/01 09:27:38;;;;;;;7.07;3.17;;;;;;;;;;5060222;28;20028;-78
2023/08/01 09:30:13;;;;;;;6.40;2.83;;;;;;;;;;5062908;28;20040;-78
2023/08/01 09:32:39;;;;;;;8.23;3.10;;;;;;;;;;5046629;28;20052;-80
2023/08/01 09:35:07;;;;;;;4.68;2.55;;;;;;;;;;5061274;28;20043;-76
2023/08/01 09:37:43;;;;;;;8.70;3.05;;;;;;;;;;5042882;28;20033;-79
2023/08/01 09:40:12;;;;;;;12.15;3.70;;;;;;;;;;5045555;28;20039;-78
2023/08/01 09:42:47;;;;;;;8.38;3.22;;;;;;;;;;5060257;28;20471;-75
2023/08/01 09:45:16;;;;;;;11.63;3.22;;;;;;;;;;5064259;28;20528;-77
2023/08/01 09:47:43;;;;;;;11.10;3.70;;;;;;;;;;5070443;28;20524;-74
2023/08/01 09:50:13;;;;;;;7.03;2.83;;;;;;;;;;5080188;28;20033;-72
2023/08/01 09:52:39;;;;;;;7.05;2.90;;;;;;;;;;5079659;28;20033;-77
2023/08/01 09:55:05;;;;;;;6.88;2.97;;;;;;;;;;5047924;28;20087;-80
2023/08/01 09:57:31;;;;;;;9.48;2.88;;;;;;;;;;5070890;28;20032;-78
2023/08/01 10:00:00;;;;;;;7.07;3.00;;;;;;;;;;5052522;28;20067;-80
2023/08/01 10:02:27;;;;;;;5.60;2.55;;;;;;;;;;5046223;28;20055;-77
2023/08/01 10:05:00;;;;;;;6.13;2.50;;;;;;;;;;5044739;28;20047;-78
2023/08/01 10:07:29;;;;;;;5.65;2.10;;;;;;;;;;5059801;28;20033;-76
2023/08/01 10:09:58;;;;;;;6.55;2.42;;;;;;;;;;5044756;28;20551;-79
2023/08/01 10:12:26;;;;;;;5.35;2.38;;;;;;;;;;5047813;28;20349;-77
2023/08/01 10:14:52;;;;;;;8.80;2.90;;;;;;;;;;5059599;28;20063;-77
2023/08/01 10:17:18;;;;;;;7.20;2.42;;;;;;;;;;5061026;28;20033;-77
2023/08/01 10:19:45;;;;;;;6.32;2.92;;;;;;;;;;5059775;28;20033;-76
2023/08/01 10:22:13;;;;;;;5.25;3.05;;;;;;;;;;5041862;28;20028;-80
2023/08/01 10:24:40;;;;;;;7.53;2.90;;;;;;;;;;5045111;28;20375;-78
2023/08/01 10:27:12;;;;;;;8.07;2.72;;;;;;;;;;5060648;28;20040;-78
2023/08/01 10:29:38;;;;;;;6.43;2.92;;;;;;;;;;5058821;28;20047;-79
2023/08/01 10:32:07;;;;;;;6.72;2.65;;;;;;;;;;5062364;28;20112;-77
2023/08/01 10:34:35;;;;;;;6.15;2.85;;;;;;;;;;5061066;28;20033;-82
2023/08/01 10:37:01;;;;;;;7.97;2.90;;;;;;;;;;5040688;28;20044;-79
2023/08/01 10:39:28;;;;;;;5.35;2.67;;;;;;;;;;5061248;28;20068;-79
2023/08/01 10:42:05;;;;;;;6.40;3.53;;;;;;;;;;5057961;28;20443;-78
2023/08/01 10:44:35;;;;;;;5.00;2.70;;;;;;;;;;5058766;28;20032;-79
2023/08/01 10:47:01;;;;;;;3.38;2.42;;;;;;;;;;5044466;28;20051;-80
2023/08/01 10:49:35;;;;;;;4.72;2.40;;;;;;;;;;5045187;28;20039;-81
2023/08/01 10:52:06;;;;;;;3.75;2.20;;;;;;;;;;5045261;28;20094;-79
2023/08/01 10:54:34;;;;;;;6.00;2.33;;;;;;;;;;5041027;28;20032;-79
2023/08/01 10:57:01;;;;;;;6.18;2.00;;;;;;;;;;5059828;28;20602;-81
2023/08/01 10:59:27;;;;;;;4.00;1.75;;;;;;;;;;5059541;28;21568;-80
2023/08/01 11:01:54;;;;;;;7.45;2.05;;;;;;;;;;5041601;28;20082;-78
2023/08/01 11:04:21;;;;;;;5.00;2.10;;;;;;;;;;5044935;28;20028;-78
2023/08/01 11:06:51;;;;;;;11.55;2.00;;;;;;;;;;5061481;28;20059;-80
2023/08/01 11:09:17;;;;;;;3.97;1.75;;;;;;;;;;5060963;28;20057;-80
2023/08/01 11:11:44;;;;;;;5.57;1.90;;;;;;;;;;5059605;28;20477;-80
2023/08/01 11:14:12;;;;;;;5.50;2.05;;;;;;;;;;5042764;28;20028;-80
2023/08/01 11:16:38;;;;;;;5.22;1.80;;;;;;;;;;5058774;28;20037;-76
2023/08/01 11:19:04;;;;;;;6.22;2.15;;;;;;;;;;5059166;28;20027;-80
2023/08/01 11:21:30;;;;;;;4.32;1.65;;;;;;;;;;5040654;28;20024;-78
2023/08/01 11:23:59;;;;;;;4.35;2.00;;;;;;;;;;5057540;28;20125;-78
2023/08/01 11:26:29;;;;;;;4.10;1.55;;;;;;;;;;5059150;28;20056;-77
2023/08/01 11:28:55;;;;;;;3.80;1.85;;;;;;;;;;5041205;28;20037;-83
2023/08/01 11:31:21;;;;;;;4.63;1.65;;;;;;;;;;5059020;28;20032;-78
2023/08/01 11:33:56;;;;;;;9.57;2.05;;;;;;;;;;5041833;28;20037;-79
2023/08/01 11:36:22;;;;;;;5.18;1.70;;;;;;;;;;5040014;28;20025;-80
2023/08/01 11:38:51;;;;;;;7.18;2.22;;;;;;;;;;5044592;28;20440;-78
2023/08/01 11:41:17;;;;;;;3.53;1.60;;;;;;;;;;5057824;28;20033;-81
2023/08/01 11:43:46;;;;;;;4.13;1.70;;;;;;;;;;5044171;28;20042;-78
2023/08/01 11:46:13;;;;;;;5.30;1.80;;;;;;;;;;5043622;28;20029;-78
2023/08/01 11:48:41;;;;;;;4.30;1.70;;;;;;;;;;5058602;28;20029;-79
2023/08/01 11:51:07;;;;;;;4.25;2.10;;;;;;;;;;5057328;28;20080;-78
2023/08/01 11:53:38;;;;;;;3.10;1.40;;;;;;;;;;5039843;28;21110;-78
2023/08/01 11:56:04;;;;;;;6.55;1.52;;;;;;;;;;5040457;28;20016;-80
2023/08/01 11:58:34;;;;;;;6.47;2.15;;;;;;;;;;5058833;28;20039;-79
2023/08/01 12:01:07;;;;;;;5.13;1.75;;;;;;;;;;5040647;28;20060;-81
2023/08/01 12:03:42;;;;;;;8.50;2.30;;;;;;;;;;5040569;28;20033;-82
2023/08/01 12:06:13;;;;;;;7.97;2.55;;;;;;;;;;5061137;28;20024;-80
2023/08/01 12:08:39;;;;;;;4.00;1.75;;;;;;;;;;5063099;28;20891;-83
2023/08/01 12:11:05;;;;;;;7.10;1.90;;;;;;;;;;5061116;28;20033;-78
2023/08/01 12:13:31;;;;;;;10.05;2.22;;;;;;;;;;5044806;28;20595;-80
2023/08/01 12:15:58;;;;;;;9.40;1.67;;;;;;;;;;5048324;28;20082;-80
2023/08/01 12:18:24;;;;;;;4.38;1.77;;;;;;;;;;5048607;28;20020;-76
2023/08/01 12:20:50;;;;;;;5.57;1.67;;;;;;;;;;5063498;28;20020;-81
2023/08/01 12:23:16;;;;;;;3.35;1.40;;;;;;;;;;5061809;28;20047;-80
2023/08/01 12:25:42;;;;;;;3.55;1.40;;;;;;;;;;5061293;28;20039;-81
2023/08/01 12:28:08;;;;;;;5.93;2.05;;;;;;;;;;5046869;28;20029;-77
2023/08/01 12:30:34;;;;;;;4.43;1.38;;;;;;;;;;5062971;28;20048;-82
2023/08/01 12:33:00;;;;;;;6.85;1.83;;;;;;;;;;5047220;28;20041;-79
2023/08/01 12:35:27;;;;;;;21.13;2.95;;;;;;;;;;5062085;28;20491;-79
2023/08/01 12:37:53;;;;;;;27.90;4.47;;;;;;;;;;5067693;28;20621;-79
2023/08/01 12:40:22;;;;;;;15.55;3.42;;;;;;;;;;5076408;28;19996;-79
2023/08/01 12:42:50;;;;;;;10.48;4.03;;;;;;;;;;5066308;28;20060;-78
2023/08/01 12:45:16;;;;;;;11.23;4.53;;;;;;;;;;5053191;28;20036;-76
2023/08/01 12:47:48;;;;;;;7.90;3.45;;;17.10;99.90;;;;;;5053657;28;20036;-76
2023/08/01 12:50:14;;;;;;;8.55;3.67;;;17.30;99.90;;;;;;5056081;28;20064;-78
2023/08/01 12:52:40;;;;;;;8.43;3.50;;;;;;;;;;5050975;28;20056;-78
2023/08/01 12:55:06;;;;;;;6.97;2.67;;;17.40;99.90;;;;;;5067983;28;20033;-78
2023/08/01 12:57:32;;;;;;;8.88;2.55;;;;;;;;;;5061842;28;20036;-78
2023/08/01 12:59:57;;;;;;;9.90;3.35;;;;;;;;;;5060988;28;20038;-78
2023/08/01 13:02:23;;;;;;;6.22;3.17;;;;;;;;;;5062136;28;20071;-79
2023/08/01 13:04:49;;;;;;;10.45;4.22;;;;;;;;;;5060926;28;20111;-77
2023/08/01 13:07:15;;;;;;;6.45;4.05;;;;;;;;;;5060939;28;20037;-77
2023/08/01 13:09:41;;;;;;;9.63;3.70;;;;;;;;;;5061377;28;20036;-78
2023/08/01 13:12:08;;;;;;;7.60;3.08;;;;;;;;;;5042789;28;20043;-77
2023/08/01 13:14:33;;;;;;;10.98;3.97;;;;;;;;;;5060129;28;20063;-78
2023/08/01 13:17:02;;;;;;;10.45;4.50;;;;;;;;;;5039962;28;20564;-79
2023/08/01 13:19:28;;;;;;;8.63;3.80;;;;;;;;;;5063071;28;20028;-77
2023/08/01 13:21:54;;;;;;;5.75;3.22;;;;;;;;;;5060731;28;20506;-79
2023/08/01 13:24:20;;;;;;;12.57;3.65;;;;;;;;;;5042163;28;20036;-78
2023/08/01 13:26:46;;;;;;;8.65;3.33;;;;;;;;;;5046466;28;21641;-78
2023/08/01 13:29:14;;;;;;;5.43;3.83;;;;;;;;;;5060476;28;20093;-79
2023/08/01 13:31:42;;;;;;;6.97;3.13;;;;;;;;;;5046712;28;20083;-78
2023/08/01 13:34:08;;;;;;;8.50;3.90;;;;;;;;;;5043314;28;20028;-76
2023/08/01 13:36:34;;;;;;;8.02;3.97;;;;;;;;;;5046292;28;20036;-79
2023/08/01 13:39:00;;;;;;;8.25;3.38;;;;;;;;;;5042028;28;20036;-77
2023/08/01 13:41:26;;;;;;;14.50;3.30;;;;;;;;;;5060380;28;20894;-78
2023/08/01 13:43:51;;;;;;;5.63;3.28;;;;;;;;;;5061258;28;20040;-80
2023/08/01 13:46:21;;;;;;;10.40;3.17;;;;;;;;;;5061646;28;20029;-79
2023/08/01 13:48:47;;;;;;;12.70;3.78;;;;;;;;;;5060487;28;20043;-77
2023/08/01 13:51:14;;;;;;;7.55;3.20;;;;;;;;;;5059620;28;20044;-82
2023/08/01 13:53:43;;;;;;;7.68;3.53;;;;;;;;;;5059884;28;20099;-78
2023/08/01 13:56:11;;;;;;;4.38;2.80;;;;;;;;;;5062952;28;20028;-80
2023/08/01 13:58:43;;;;;;;9.65;3.15;;;;;;;;;;5041063;28;20024;-81
2023/08/01 14:01:12;;;;;;;7.93;2.53;;;;;;;;;;5058230;28;20123;-78
2023/08/01 14:03:38;;;;;;;7.47;2.95;;;;;;;;;;5044995;28;20036;-82
2023/08/01 14:06:11;;;;;;;9.10;3.33;;;;;;;;;;5061259;28;20043;-78
2023/08/01 14:08:37;;;;;;;7.13;2.67;;;;;;;;;;5041268;28;20032;-77
2023/08/01 14:11:04;;;;;;;7.35;2.80;;;;;;;;;;5042029;28;20032;-78
2023/08/01 14:13:30;;;;;;;6.25;2.92;;;;;;;;;;5042486;28;20041;-79
2023/08/01 14:15:56;;;;;;;12.52;3.50;;;;;;;;;;5044382;28;20029;-82
2023/08/01 14:18:22;;;;;;;7.47;2.30;;;;;;;;;;5059879;28;20550;-79
2023/08/01 14:20:48;;;;;;;4.53;1.92;;;;;;;;;;5045776;28;21874;-82
2023/08/01 14:23:14;;;;;;;8.23;2.53;;;;;;;;;;5046349;28;20107;-82
2023/08/01 14:25:40;;;;;;;12.88;2.42;;;;;;;;;;5062914;28;20607;-77
2023/08/01 14:28:09;;;;;;;6.75;2.22;;;;;;;;;;5048008;28;20040;-79
2023/08/01 14:30:37;;;;;;;7.63;2.45;;;;;;;;;;5060970;28;20567;-77
2023/08/01 14:33:04;;;;;;;7.88;1.95;;;;;;;;;;5048646;28;20376;-78
2023/08/01 14:35:30;;;;;;;5.00;2.47;;;;;;;;;;5046150;28;20036;-79